Weather History for KPNA - September, 2012

Change the Weather History Date:

Sunday, September 30, 2012

  Actual Average (KBPI) Record (KBPI)
Temperature  
Mean Temperature 50 °F 44 °F  
Max Temperature 69 °F 62 °F 79 °F (2011)
Min Temperature 30 °F 27 °F 12 °F (1983)
Degree Days  
Heating Degree Days 16 21  
Month to date heating degree days 458  
Since 1 July heating degree days 751  
Cooling Degree Days 0 0  
Month to date cooling degree days 0  
Year to date cooling degree days 35  
Moisture  
Dew Point 30 °F    
Average Humidity 56    
Maximum Humidity 93    
Minimum Humidity 18    
Precipitation  
Precipitation 0.00 in 0.02 in 0.35 in (1982)
Month to date precipitation 0.78  
Year to date precipitation 5.44  
Sea Level Pressure  
Sea Level Pressure 30.35 in    
Wind  
Wind Speed 8 mph (WNW)    
Max Wind Speed 23 mph    
Max Gust Speed 30 mph    
Visibility 10 miles    
Events      
T = Trace of Precipitation, MM = Missing Value Source: NWS Daily Summary

Daily Weather History Graph

Daily Weather History Graph

Search for Another Location

Airport or City:

Trip Planner

Search our weather history database for the weather conditions in past years. The results will help you decide how hot, cold, wet, or windy it might be!

Date:

Astronomy

Sep. 30, 2012 Rise Set
Actual Time 7:15 AM MDT 7:01 PM MDT
Civil Twilight 6:47 AM MDT 7:29 PM MDT
Nautical Twilight 6:14 AM MDT 8:02 PM MDT
Astronomical Twilight 5:41 AM MDT 8:35 PM MDT
Moon 7:04 PM MDT (9/30) 7:52 AM MDT (9/30)
Length of Visible Light 12h 41m
Length of Day
11h 45m
Full, 100% of the Moon is Illuminated
Sep 30
Full
Oct 8
Last Quarter
Oct 15
New
Oct 21
First Quarter
Oct 29
Full

Hourly Weather History & Observations

Time (MDT) Temp. Windchill Dew Point Humidity Pressure Visibility Wind Dir Wind Speed Gust Speed Precip Events Conditions
12:15 AM 37.4 °F 32.8 °F 30.2 °F 75% 30.35 in 10.0 mi West 5.8 mph - N/A   Scattered Clouds
12:35 AM 37.4 °F 31.4 °F 30.2 °F 75% 30.35 in 10.0 mi West 8.1 mph - N/A   Clear
12:55 AM 35.6 °F 30.7 °F 30.2 °F 81% 30.35 in 10.0 mi WNW 5.8 mph - N/A   Clear
1:15 AM 35.6 °F 28.0 °F 30.2 °F 81% 30.35 in 10.0 mi NW 10.4 mph - N/A   Clear
1:35 AM 35.6 °F 30.7 °F 30.2 °F 81% 30.35 in 10.0 mi West 5.8 mph - N/A   Clear
1:55 AM 35.6 °F 29.9 °F 30.2 °F 81% 30.35 in 10.0 mi WNW 6.9 mph - N/A   Clear
2:15 AM 33.8 °F 27.7 °F 30.2 °F 87% 30.35 in 10.0 mi West 6.9 mph - N/A   Clear
2:35 AM 32.0 °F 27.5 °F 30.2 °F 93% 30.35 in 10.0 mi West 4.6 mph - N/A   Clear
2:55 AM 35.6 °F 29.9 °F 30.2 °F 81% 30.35 in 10.0 mi WNW 6.9 mph - N/A   Scattered Clouds
3:15 AM 33.8 °F 29.6 °F 30.2 °F 87% 30.35 in 10.0 mi NW 4.6 mph - N/A   Scattered Clouds
3:35 AM 33.8 °F - 30.2 °F 87% 30.35 in 10.0 mi Calm Calm - N/A   Clear
3:55 AM 32.0 °F 27.5 °F 30.2 °F 93% 30.35 in 10.0 mi West 4.6 mph - N/A   Clear
4:15 AM 32.0 °F 25.6 °F 30.2 °F 93% 30.35 in 10.0 mi West 6.9 mph - N/A   Clear
4:35 AM 32.0 °F 26.4 °F 28.4 °F 87% 30.35 in 10.0 mi West 5.8 mph - N/A   Clear
4:55 AM 32.0 °F 26.4 °F 28.4 °F 87% 30.36 in 10.0 mi West 5.8 mph - N/A   Clear
5:15 AM 32.0 °F 26.4 °F 30.2 °F 93% 30.35 in 10.0 mi WNW 5.8 mph - N/A   Clear
5:35 AM 32.0 °F 26.4 °F 30.2 °F 93% 30.35 in 10.0 mi WNW 5.8 mph - N/A   Clear
5:55 AM 32.0 °F 26.4 °F 28.4 °F 87% 30.35 in 10.0 mi NW 5.8 mph - N/A   Clear
6:15 AM 32.0 °F 25.6 °F 28.4 °F 87% 30.35 in 10.0 mi WNW 6.9 mph - N/A   Clear
6:35 AM 30.2 °F 23.4 °F 28.4 °F 93% 30.36 in 10.0 mi WNW 6.9 mph - N/A   Clear
6:55 AM 32.0 °F 25.6 °F 30.2 °F 93% 30.36 in 10.0 mi West 6.9 mph - N/A   Clear
7:15 AM 32.0 °F 26.4 °F 30.2 °F 93% 30.37 in 10.0 mi West 5.8 mph - N/A   Clear
7:35 AM 32.0 °F 26.4 °F 30.2 °F 93% 30.38 in 10.0 mi West 5.8 mph - N/A   Clear
7:55 AM 32.0 °F 28.7 °F 30.2 °F 93% 30.39 in 10.0 mi NW 3.5 mph - N/A   Clear
8:15 AM 33.8 °F 28.6 °F 30.2 °F 87% 30.39 in 10.0 mi NW 5.8 mph - N/A   Clear
8:35 AM 37.4 °F 32.8 °F 32.0 °F 81% 30.39 in 10.0 mi NW 5.8 mph - N/A   Clear
8:55 AM 41.0 °F 37.1 °F 32.0 °F 70% 30.39 in 10.0 mi WNW 5.8 mph - N/A   Clear
9:15 AM 44.6 °F 40.7 °F 32.0 °F 61% 30.39 in 10.0 mi West 6.9 mph - N/A   Clear
9:35 AM 46.4 °F 45.2 °F 33.8 °F 62% 30.39 in 10.0 mi West 3.5 mph - N/A   Clear
9:55 AM 50.0 °F - 33.8 °F 54% 30.39 in 10.0 mi Calm Calm - N/A   Clear
10:35 AM 59.0 °F - 32.0 °F 36% 30.38 in 10.0 mi ESE 3.5 mph - N/A   Clear
10:55 AM 59.0 °F - 32.0 °F 36% 30.38 in 10.0 mi SE 3.5 mph - N/A   Clear
11:15 AM 60.8 °F - 32.0 °F 34% 30.37 in 10.0 mi Calm Calm - N/A   Clear
11:35 AM 60.8 °F - 30.2 °F 31% 30.37 in 10.0 mi West 8.1 mph - N/A   Clear
11:55 AM 62.6 °F - 32.0 °F 32% 30.37 in 10.0 mi West 8.1 mph - N/A   Clear
12:15 PM 62.6 °F - 32.0 °F 32% 30.36 in 10.0 mi West 10.4 mph - N/A   Clear
12:35 PM 62.6 °F - 32.0 °F 32% 30.35 in 10.0 mi West 11.5 mph - N/A   Clear
12:55 PM 64.4 °F - 30.2 °F 28% 30.35 in 10.0 mi WNW 9.2 mph - N/A   Clear
1:15 PM 66.2 °F - 30.2 °F 26% 30.34 in 10.0 mi WNW 16.1 mph 23.0 mph N/A   Clear
1:35 PM 68.0 °F - 30.2 °F 24% 30.33 in 10.0 mi NW 8.1 mph 24.2 mph N/A   Clear
2:15 PM 69.8 °F - 30.2 °F 23% 30.31 in 10.0 mi West 13.8 mph 19.6 mph N/A   Clear
2:35 PM 69.8 °F - 28.4 °F 21% 30.30 in 10.0 mi WNW 15.0 mph 24.2 mph N/A   Scattered Clouds
2:55 PM 69.8 °F - 26.6 °F 20% 30.30 in 10.0 mi West 18.4 mph 29.9 mph N/A   Clear
3:15 PM 69.8 °F - 28.4 °F 21% 30.30 in 10.0 mi NW 20.7 mph 28.8 mph N/A   Clear
3:35 PM 69.8 °F - 24.8 °F 18% 30.30 in 10.0 mi WNW 20.7 mph 29.9 mph N/A   Clear
3:55 PM 69.8 °F - 26.6 °F 20% 30.30 in 10.0 mi WNW 19.6 mph 26.5 mph N/A   Clear
4:15 PM 69.8 °F - 26.6 °F 20% 30.30 in 10.0 mi NW 19.6 mph 26.5 mph N/A   Clear
4:35 PM 69.8 °F - 28.4 °F 21% 30.30 in 10.0 mi WNW 23.0 mph 26.5 mph N/A   Clear
4:55 PM 68.0 °F - 28.4 °F 23% 30.30 in 10.0 mi WNW 17.3 mph 27.6 mph N/A   Clear
5:15 PM 68.0 °F - 28.4 °F 23% 30.30 in 10.0 mi West 19.6 mph 23.0 mph N/A   Clear
5:35 PM 66.2 °F - 30.2 °F 26% 30.30 in 10.0 mi West 20.7 mph 27.6 mph N/A   Clear
5:55 PM 66.2 °F - 28.4 °F 24% 30.30 in 10.0 mi WNW 17.3 mph 23.0 mph N/A   Clear
6:15 PM 64.4 °F - 28.4 °F 26% 30.31 in 10.0 mi WNW 16.1 mph 21.9 mph N/A   Clear
6:35 PM 64.4 °F - 28.4 °F 26% 30.31 in 10.0 mi WNW 15.0 mph 23.0 mph N/A   Clear
6:55 PM 62.6 °F - 28.4 °F 27% 30.32 in 10.0 mi WNW 12.7 mph - N/A   Clear
7:15 PM 59.0 °F - 30.2 °F 34% 30.32 in 10.0 mi WNW 13.8 mph - N/A   Clear
7:35 PM 59.0 °F - 30.2 °F 34% 30.33 in 10.0 mi NW 11.5 mph - N/A   Clear
7:55 PM 53.6 °F - 30.2 °F 41% 30.34 in 10.0 mi NW 11.5 mph - N/A   Scattered Clouds
8:15 PM 51.8 °F - 32.0 °F 47% 30.35 in 10.0 mi NW 11.5 mph - N/A   Scattered Clouds
8:35 PM 51.8 °F - 32.0 °F 47% 30.35 in 10.0 mi NW 9.2 mph - N/A   Mostly Cloudy
9:15 PM 48.2 °F - 30.2 °F 50% 30.37 in 10.0 mi West 12.7 mph - N/A   Clear
9:35 PM 50.0 °F - 30.2 °F 47% 30.37 in 10.0 mi West 13.8 mph - N/A   Scattered Clouds
10:15 PM 46.4 °F 41.1 °F 30.2 °F 53% 30.37 in 10.0 mi WNW 11.5 mph - N/A   Scattered Clouds
10:35 PM 46.4 °F 40.1 °F 30.2 °F 53% 30.37 in 10.0 mi WNW 15.0 mph - N/A   Mostly Cloudy
10:55 PM 48.2 °F - 30.2 °F 50% 30.38 in 10.0 mi WNW 16.1 mph - N/A   Scattered Clouds
11:15 PM 46.4 °F 40.7 °F 30.2 °F 53% 30.39 in 10.0 mi NW 12.7 mph - N/A   Scattered Clouds
11:35 PM 42.8 °F 36.2 °F 30.2 °F 61% 30.40 in 10.0 mi NW 12.7 mph - N/A   Scattered Clouds
11:55 PM 42.8 °F 36.2 °F 30.2 °F 61% 30.40 in 10.0 mi WNW 12.7 mph - N/A   Clear